Atalaya, Peru
Current Conditions -  °F | °C
As of 6:00 PM on Friday 21 Nov 2014 (Local Time) from SPHO Reporting Station
Light Rain Light Rain  
Wind Chill: 66°   Ceiling: 4600
Heat Index: 66°   Visibility: 6mi
Dew Point: 52°   Wind: 10mph
Humidity: 60%   Direction: 180°S
Pressure: 30.18"   Gusts: NA
Location:  10.74°S, 73.76°W
Report Text: SPHO 212300Z 18009KT 140V210 9999 -RA OVC046 19/11 Q1022 RMK PPTRZ
Loading
Personal Weather Stations






























Interactive Weather Map New forecast layout! Learn more

10-Day Weather Forecast

Advertisements
Track Severe Weather on mobile